sensor_id;sensor_type;location;lat;lon;timestamp;P1;durP1;ratioP1;P2;durP2;ratioP2
291;SDS011;23311;48.776;9.162;2024-03-08T00:02:01;22.77;;;18.47;;
291;SDS011;23311;48.776;9.162;2024-03-08T00:04:29;23.47;;;18.80;;
291;SDS011;23311;48.776;9.162;2024-03-08T00:06:57;22.23;;;18.57;;
291;SDS011;23311;48.776;9.162;2024-03-08T00:09:25;24.90;;;19.00;;
291;SDS011;23311;48.776;9.162;2024-03-08T00:11:55;26.33;;;19.20;;
291;SDS011;23311;48.776;9.162;2024-03-08T00:14:23;24.67;;;18.60;;
291;SDS011;23311;48.776;9.162;2024-03-08T00:16:51;32.03;;;19.63;;
291;SDS011;23311;48.776;9.162;2024-03-08T00:19:20;23.93;;;17.77;;
291;SDS011;23311;48.776;9.162;2024-03-08T00:21:49;24.80;;;19.10;;
291;SDS011;23311;48.776;9.162;2024-03-08T00:24:17;24.87;;;18.60;;
291;SDS011;23311;48.776;9.162;2024-03-08T00:26:50;23.73;;;18.83;;
291;SDS011;23311;48.776;9.162;2024-03-08T00:29:22;26.60;;;19.40;;
291;SDS011;23311;48.776;9.162;2024-03-08T00:31:50;25.83;;;20.70;;
291;SDS011;23311;48.776;9.162;2024-03-08T00:34:19;24.70;;;18.37;;
291;SDS011;23311;48.776;9.162;2024-03-08T00:36:47;24.70;;;19.37;;
291;SDS011;23311;48.776;9.162;2024-03-08T00:39:15;27.87;;;20.23;;
291;SDS011;23311;48.776;9.162;2024-03-08T00:41:43;23.17;;;19.30;;
291;SDS011;23311;48.776;9.162;2024-03-08T00:44:12;25.90;;;19.27;;
291;SDS011;23311;48.776;9.162;2024-03-08T00:46:42;24.37;;;19.57;;
291;SDS011;23311;48.776;9.162;2024-03-08T00:49:10;26.33;;;19.17;;
291;SDS011;23311;48.776;9.162;2024-03-08T00:51:39;28.43;;;21.43;;
291;SDS011;23311;48.776;9.162;2024-03-08T00:54:07;29.00;;;21.30;;
291;SDS011;23311;48.776;9.162;2024-03-08T00:56:35;29.27;;;21.20;;
291;SDS011;23311;48.776;9.162;2024-03-08T00:59:06;26.00;;;20.30;;
291;SDS011;23311;48.776;9.162;2024-03-08T01:01:34;26.90;;;20.40;;
291;SDS011;23311;48.776;9.162;2024-03-08T01:04:04;32.60;;;20.23;;
291;SDS011;23311;48.776;9.162;2024-03-08T01:06:32;28.07;;;22.00;;
291;SDS011;23311;48.776;9.162;2024-03-08T01:09:00;30.60;;;22.73;;
291;SDS011;23311;48.776;9.162;2024-03-08T01:11:29;28.17;;;21.30;;
291;SDS011;23311;48.776;9.162;2024-03-08T01:13:57;27.00;;;20.23;;
291;SDS011;23311;48.776;9.162;2024-03-08T01:16:25;27.87;;;21.27;;
291;SDS011;23311;48.776;9.162;2024-03-08T01:18:54;32.27;;;23.37;;
291;SDS011;23311;48.776;9.162;2024-03-08T01:21:24;31.83;;;22.87;;
291;SDS011;23311;48.776;9.162;2024-03-08T01:23:52;29.40;;;20.73;;
291;SDS011;23311;48.776;9.162;2024-03-08T01:26:20;29.17;;;21.10;;
291;SDS011;23311;48.776;9.162;2024-03-08T01:28:49;26.80;;;20.60;;
291;SDS011;23311;48.776;9.162;2024-03-08T01:31:17;29.93;;;22.63;;
291;SDS011;23311;48.776;9.162;2024-03-08T01:33:45;31.17;;;21.53;;
291;SDS011;23311;48.776;9.162;2024-03-08T01:36:14;31.00;;;21.70;;
291;SDS011;23311;48.776;9.162;2024-03-08T01:38:44;31.17;;;22.67;;
291;SDS011;23311;48.776;9.162;2024-03-08T01:41:13;28.20;;;21.97;;
291;SDS011;23311;48.776;9.162;2024-03-08T01:43:42;29.20;;;21.87;;
291;SDS011;23311;48.776;9.162;2024-03-08T01:46:11;29.40;;;23.90;;
291;SDS011;23311;48.776;9.162;2024-03-08T01:48:43;29.80;;;22.33;;
291;SDS011;23311;48.776;9.162;2024-03-08T01:51:12;26.57;;;21.67;;
291;SDS011;23311;48.776;9.162;2024-03-08T01:53:42;29.43;;;21.80;;
291;SDS011;23311;48.776;9.162;2024-03-08T01:56:13;26.03;;;19.63;;
291;SDS011;23311;48.776;9.162;2024-03-08T01:58:42;30.27;;;21.97;;
291;SDS011;23311;48.776;9.162;2024-03-08T02:01:10;29.87;;;22.07;;
291;SDS011;23311;48.776;9.162;2024-03-08T02:03:42;29.70;;;22.40;;
291;SDS011;23311;48.776;9.162;2024-03-08T02:06:11;30.17;;;22.70;;
291;SDS011;23311;48.776;9.162;2024-03-08T02:08:41;27.60;;;21.20;;
291;SDS011;23311;48.776;9.162;2024-03-08T02:11:11;32.30;;;22.30;;
291;SDS011;23311;48.776;9.162;2024-03-08T02:13:41;29.80;;;22.73;;
291;SDS011;23311;48.776;9.162;2024-03-08T02:16:10;31.17;;;23.20;;
291;SDS011;23311;48.776;9.162;2024-03-08T02:18:38;30.23;;;23.57;;
291;SDS011;23311;48.776;9.162;2024-03-08T02:21:08;29.67;;;22.10;;
291;SDS011;23311;48.776;9.162;2024-03-08T02:23:37;27.43;;;21.67;;
291;SDS011;23311;48.776;9.162;2024-03-08T02:26:06;30.63;;;22.30;;
291;SDS011;23311;48.776;9.162;2024-03-08T02:28:34;30.80;;;22.23;;
291;SDS011;23311;48.776;9.162;2024-03-08T02:31:02;27.23;;;22.70;;
291;SDS011;23311;48.776;9.162;2024-03-08T02:33:34;28.23;;;20.90;;
291;SDS011;23311;48.776;9.162;2024-03-08T02:36:05;30.47;;;22.87;;
291;SDS011;23311;48.776;9.162;2024-03-08T02:38:39;33.00;;;22.80;;
291;SDS011;23311;48.776;9.162;2024-03-08T02:41:08;31.77;;;23.60;;
291;SDS011;23311;48.776;9.162;2024-03-08T02:43:37;29.33;;;22.50;;
291;SDS011;23311;48.776;9.162;2024-03-08T02:46:09;30.23;;;22.67;;
291;SDS011;23311;48.776;9.162;2024-03-08T02:48:38;30.13;;;23.10;;
291;SDS011;23311;48.776;9.162;2024-03-08T02:51:07;25.10;;;20.33;;
291;SDS011;23311;48.776;9.162;2024-03-08T02:53:38;31.07;;;22.43;;
291;SDS011;23311;48.776;9.162;2024-03-08T02:56:07;26.90;;;20.77;;
291;SDS011;23311;48.776;9.162;2024-03-08T02:58:39;27.03;;;21.17;;
291;SDS011;23311;48.776;9.162;2024-03-08T03:01:07;27.77;;;20.97;;
291;SDS011;23311;48.776;9.162;2024-03-08T03:03:36;33.17;;;23.73;;
291;SDS011;23311;48.776;9.162;2024-03-08T03:06:04;28.80;;;22.93;;
291;SDS011;23311;48.776;9.162;2024-03-08T03:08:35;28.37;;;21.27;;
291;SDS011;23311;48.776;9.162;2024-03-08T03:11:05;29.60;;;21.40;;
291;SDS011;23311;48.776;9.162;2024-03-08T03:13:33;28.93;;;21.60;;
291;SDS011;23311;48.776;9.162;2024-03-08T03:16:02;26.13;;;20.33;;
291;SDS011;23311;48.776;9.162;2024-03-08T03:18:31;27.17;;;20.33;;
291;SDS011;23311;48.776;9.162;2024-03-08T03:21:00;28.40;;;21.10;;
291;SDS011;23311;48.776;9.162;2024-03-08T03:23:34;28.90;;;20.77;;
291;SDS011;23311;48.776;9.162;2024-03-08T03:26:05;28.57;;;20.53;;
291;SDS011;23311;48.776;9.162;2024-03-08T03:28:34;29.90;;;20.93;;
291;SDS011;23311;48.776;9.162;2024-03-08T03:31:04;25.80;;;20.20;;
291;SDS011;23311;48.776;9.162;2024-03-08T03:33:35;26.70;;;20.20;;
291;SDS011;23311;48.776;9.162;2024-03-08T03:36:27;25.33;;;20.90;;
291;SDS011;23311;48.776;9.162;2024-03-08T03:39:20;30.23;;;20.93;;
291;SDS011;23311;48.776;9.162;2024-03-08T03:42:14;27.30;;;19.87;;
291;SDS011;23311;48.776;9.162;2024-03-08T03:44:44;28.30;;;20.23;;
291;SDS011;23311;48.776;9.162;2024-03-08T03:47:36;23.60;;;17.77;;
291;SDS011;23311;48.776;9.162;2024-03-08T03:50:05;24.90;;;18.17;;
291;SDS011;23311;48.776;9.162;2024-03-08T03:52:37;23.13;;;18.40;;
291;SDS011;23311;48.776;9.162;2024-03-08T03:55:06;22.97;;;19.10;;
291;SDS011;23311;48.776;9.162;2024-03-08T03:57:36;25.30;;;18.80;;
291;SDS011;23311;48.776;9.162;2024-03-08T04:00:27;22.70;;;17.70;;
291;SDS011;23311;48.776;9.162;2024-03-08T04:02:55;24.97;;;18.67;;
291;SDS011;23311;48.776;9.162;2024-03-08T04:05:50;23.80;;;18.47;;
291;SDS011;23311;48.776;9.162;2024-03-08T04:08:19;24.23;;;18.80;;
291;SDS011;23311;48.776;9.162;2024-03-08T04:11:10;24.60;;;17.90;;
291;SDS011;23311;48.776;9.162;2024-03-08T04:13:40;24.50;;;18.40;;
291;SDS011;23311;48.776;9.162;2024-03-08T04:16:31;27.20;;;20.07;;
291;SDS011;23311;48.776;9.162;2024-03-08T04:18:59;23.37;;;19.60;;
291;SDS011;23311;48.776;9.162;2024-03-08T04:21:53;23.77;;;18.20;;
291;SDS011;23311;48.776;9.162;2024-03-08T04:24:21;25.53;;;18.40;;
291;SDS011;23311;48.776;9.162;2024-03-08T04:27:13;23.93;;;19.03;;
291;SDS011;23311;48.776;9.162;2024-03-08T04:29:43;25.20;;;19.67;;
291;SDS011;23311;48.776;9.162;2024-03-08T04:32:34;25.00;;;20.47;;
291;SDS011;23311;48.776;9.162;2024-03-08T04:35:03;25.10;;;19.20;;
291;SDS011;23311;48.776;9.162;2024-03-08T04:37:54;25.70;;;19.80;;
291;SDS011;23311;48.776;9.162;2024-03-08T04:40:48;25.70;;;20.03;;
291;SDS011;23311;48.776;9.162;2024-03-08T04:43:40;24.47;;;20.20;;
291;SDS011;23311;48.776;9.162;2024-03-08T04:46:09;25.57;;;19.50;;
291;SDS011;23311;48.776;9.162;2024-03-08T04:49:01;27.10;;;20.50;;
291;SDS011;23311;48.776;9.162;2024-03-08T04:51:29;22.50;;;19.10;;
291;SDS011;23311;48.776;9.162;2024-03-08T04:54:21;26.17;;;19.53;;
291;SDS011;23311;48.776;9.162;2024-03-08T04:56:49;25.90;;;20.07;;
291;SDS011;23311;48.776;9.162;2024-03-08T04:59:40;25.23;;;20.03;;
291;SDS011;23311;48.776;9.162;2024-03-08T05:02:10;25.27;;;20.10;;
291;SDS011;23311;48.776;9.162;2024-03-08T05:05:01;29.27;;;21.13;;
291;SDS011;23311;48.776;9.162;2024-03-08T05:07:32;28.37;;;20.80;;
291;SDS011;23311;48.776;9.162;2024-03-08T05:10:25;29.10;;;21.43;;
291;SDS011;23311;48.776;9.162;2024-03-08T05:12:53;27.77;;;21.27;;
291;SDS011;23311;48.776;9.162;2024-03-08T05:15:44;28.83;;;22.90;;
291;SDS011;23311;48.776;9.162;2024-03-08T05:18:17;26.97;;;21.90;;
291;SDS011;23311;48.776;9.162;2024-03-08T05:21:09;25.50;;;20.00;;
291;SDS011;23311;48.776;9.162;2024-03-08T05:23:37;27.20;;;20.10;;
291;SDS011;23311;48.776;9.162;2024-03-08T05:26:29;27.40;;;22.40;;
291;SDS011;23311;48.776;9.162;2024-03-08T05:29:02;29.03;;;23.17;;
291;SDS011;23311;48.776;9.162;2024-03-08T05:31:35;25.80;;;19.93;;
291;SDS011;23311;48.776;9.162;2024-03-08T05:34:15;31.13;;;22.57;;
291;SDS011;23311;48.776;9.162;2024-03-08T05:36:45;29.00;;;21.53;;
291;SDS011;23311;48.776;9.162;2024-03-08T05:39:15;30.83;;;21.83;;
291;SDS011;23311;48.776;9.162;2024-03-08T05:42:08;29.80;;;22.50;;
291;SDS011;23311;48.776;9.162;2024-03-08T05:45:00;28.00;;;22.17;;
291;SDS011;23311;48.776;9.162;2024-03-08T05:50:29;28.60;;;21.67;;
291;SDS011;23311;48.776;9.162;2024-03-08T05:53:00;27.70;;;20.40;;
291;SDS011;23311;48.776;9.162;2024-03-08T05:55:33;28.00;;;21.67;;
291;SDS011;23311;48.776;9.162;2024-03-08T05:58:02;27.00;;;21.20;;
291;SDS011;23311;48.776;9.162;2024-03-08T06:00:53;30.90;;;21.20;;
291;SDS011;23311;48.776;9.162;2024-03-08T06:03:21;30.07;;;21.93;;
291;SDS011;23311;48.776;9.162;2024-03-08T06:06:14;28.57;;;21.90;;
291;SDS011;23311;48.776;9.162;2024-03-08T06:08:44;32.77;;;22.90;;
291;SDS011;23311;48.776;9.162;2024-03-08T06:11:37;25.33;;;20.33;;
291;SDS011;23311;48.776;9.162;2024-03-08T06:14:06;25.90;;;20.57;;
291;SDS011;23311;48.776;9.162;2024-03-08T06:16:57;31.70;;;22.67;;
291;SDS011;23311;48.776;9.162;2024-03-08T06:19:26;27.40;;;21.57;;
291;SDS011;23311;48.776;9.162;2024-03-08T06:22:19;26.93;;;20.43;;
291;SDS011;23311;48.776;9.162;2024-03-08T06:24:47;25.40;;;20.43;;
291;SDS011;23311;48.776;9.162;2024-03-08T06:27:38;27.40;;;20.63;;
291;SDS011;23311;48.776;9.162;2024-03-08T06:30:14;27.00;;;19.97;;
291;SDS011;23311;48.776;9.162;2024-03-08T06:33:05;28.37;;;21.33;;
291;SDS011;23311;48.776;9.162;2024-03-08T06:35:33;26.87;;;22.00;;
291;SDS011;23311;48.776;9.162;2024-03-08T06:38:28;25.53;;;21.90;;
291;SDS011;23311;48.776;9.162;2024-03-08T06:40:57;29.20;;;22.47;;
291;SDS011;23311;48.776;9.162;2024-03-08T06:44:11;28.07;;;21.27;;
291;SDS011;23311;48.776;9.162;2024-03-08T06:46:39;27.43;;;21.73;;
291;SDS011;23311;48.776;9.162;2024-03-08T06:49:31;28.90;;;20.63;;
291;SDS011;23311;48.776;9.162;2024-03-08T06:52:23;28.17;;;21.17;;
291;SDS011;23311;48.776;9.162;2024-03-08T06:55:15;27.37;;;21.40;;
291;SDS011;23311;48.776;9.162;2024-03-08T06:57:46;28.90;;;21.47;;
291;SDS011;23311;48.776;9.162;2024-03-08T07:00:38;23.50;;;19.83;;
291;SDS011;23311;48.776;9.162;2024-03-08T07:03:07;23.40;;;18.33;;
291;SDS011;23311;48.776;9.162;2024-03-08T07:06:01;24.33;;;19.57;;
291;SDS011;23311;48.776;9.162;2024-03-08T07:08:34;23.37;;;19.03;;
291;SDS011;23311;48.776;9.162;2024-03-08T07:11:26;22.47;;;18.30;;
291;SDS011;23311;48.776;9.162;2024-03-08T07:13:55;23.87;;;18.90;;
291;SDS011;23311;48.776;9.162;2024-03-08T07:16:47;23.43;;;18.43;;
291;SDS011;23311;48.776;9.162;2024-03-08T07:19:15;22.93;;;16.50;;
291;SDS011;23311;48.776;9.162;2024-03-08T07:22:06;21.07;;;18.33;;
291;SDS011;23311;48.776;9.162;2024-03-08T07:24:35;22.87;;;19.03;;
291;SDS011;23311;48.776;9.162;2024-03-08T07:27:45;24.00;;;18.40;;
291;SDS011;23311;48.776;9.162;2024-03-08T07:30:14;25.53;;;18.57;;
291;SDS011;23311;48.776;9.162;2024-03-08T07:33:28;21.80;;;17.40;;
291;SDS011;23311;48.776;9.162;2024-03-08T07:35:57;25.27;;;18.17;;
291;SDS011;23311;48.776;9.162;2024-03-08T07:38:49;22.07;;;18.57;;
291;SDS011;23311;48.776;9.162;2024-03-08T07:41:17;26.20;;;18.10;;
291;SDS011;23311;48.776;9.162;2024-03-08T07:44:12;20.80;;;17.30;;
291;SDS011;23311;48.776;9.162;2024-03-08T07:46:40;20.53;;;16.50;;
291;SDS011;23311;48.776;9.162;2024-03-08T07:49:55;21.63;;;18.10;;
291;SDS011;23311;48.776;9.162;2024-03-08T07:52:27;23.47;;;19.03;;
291;SDS011;23311;48.776;9.162;2024-03-08T07:55:19;18.93;;;16.70;;
291;SDS011;23311;48.776;9.162;2024-03-08T07:57:50;23.70;;;18.33;;
291;SDS011;23311;48.776;9.162;2024-03-08T08:00:42;19.20;;;16.20;;
291;SDS011;23311;48.776;9.162;2024-03-08T08:03:34;19.30;;;15.40;;
291;SDS011;23311;48.776;9.162;2024-03-08T08:06:27;20.97;;;16.50;;
291;SDS011;23311;48.776;9.162;2024-03-08T08:08:58;24.70;;;16.17;;
291;SDS011;23311;48.776;9.162;2024-03-08T08:11:31;20.00;;;15.70;;
291;SDS011;23311;48.776;9.162;2024-03-08T08:14:24;19.30;;;16.07;;
291;SDS011;23311;48.776;9.162;2024-03-08T08:17:17;20.17;;;16.10;;
291;SDS011;23311;48.776;9.162;2024-03-08T08:19:46;19.47;;;15.47;;
291;SDS011;23311;48.776;9.162;2024-03-08T08:22:15;21.83;;;16.23;;
291;SDS011;23311;48.776;9.162;2024-03-08T08:24:44;20.00;;;16.10;;
291;SDS011;23311;48.776;9.162;2024-03-08T08:27:12;22.10;;;17.20;;
291;SDS011;23311;48.776;9.162;2024-03-08T08:29:41;18.60;;;15.60;;
291;SDS011;23311;48.776;9.162;2024-03-08T08:32:09;19.47;;;15.60;;
291;SDS011;23311;48.776;9.162;2024-03-08T08:34:39;19.27;;;15.67;;
291;SDS011;23311;48.776;9.162;2024-03-08T08:37:09;18.80;;;15.57;;
291;SDS011;23311;48.776;9.162;2024-03-08T08:39:37;20.40;;;15.93;;
291;SDS011;23311;48.776;9.162;2024-03-08T08:42:05;20.53;;;15.33;;
291;SDS011;23311;48.776;9.162;2024-03-08T08:44:36;20.70;;;15.30;;
291;SDS011;23311;48.776;9.162;2024-03-08T08:47:04;20.30;;;15.40;;
291;SDS011;23311;48.776;9.162;2024-03-08T08:49:42;19.47;;;13.97;;
291;SDS011;23311;48.776;9.162;2024-03-08T08:52:11;19.00;;;15.43;;
291;SDS011;23311;48.776;9.162;2024-03-08T08:54:42;20.27;;;16.03;;
291;SDS011;23311;48.776;9.162;2024-03-08T08:57:16;20.33;;;16.03;;
291;SDS011;23311;48.776;9.162;2024-03-08T08:59:44;20.33;;;14.90;;
291;SDS011;23311;48.776;9.162;2024-03-08T09:02:12;20.73;;;14.73;;
291;SDS011;23311;48.776;9.162;2024-03-08T09:04:45;28.03;;;16.47;;
291;SDS011;23311;48.776;9.162;2024-03-08T09:07:14;18.33;;;15.37;;
291;SDS011;23311;48.776;9.162;2024-03-08T09:09:45;21.20;;;16.27;;
291;SDS011;23311;48.776;9.162;2024-03-08T09:12:13;24.23;;;15.83;;
291;SDS011;23311;48.776;9.162;2024-03-08T09:14:41;22.83;;;16.47;;
291;SDS011;23311;48.776;9.162;2024-03-08T09:17:10;19.20;;;14.67;;
291;SDS011;23311;48.776;9.162;2024-03-08T09:19:38;18.70;;;14.90;;
291;SDS011;23311;48.776;9.162;2024-03-08T09:22:08;21.23;;;17.10;;
291;SDS011;23311;48.776;9.162;2024-03-08T09:24:37;20.03;;;15.37;;
291;SDS011;23311;48.776;9.162;2024-03-08T09:27:05;18.40;;;15.37;;
291;SDS011;23311;48.776;9.162;2024-03-08T09:29:36;20.47;;;15.60;;
291;SDS011;23311;48.776;9.162;2024-03-08T09:32:04;20.43;;;15.90;;
291;SDS011;23311;48.776;9.162;2024-03-08T09:34:33;20.60;;;15.33;;
291;SDS011;23311;48.776;9.162;2024-03-08T09:37:04;18.23;;;14.80;;
291;SDS011;23311;48.776;9.162;2024-03-08T09:39:34;20.37;;;15.60;;
291;SDS011;23311;48.776;9.162;2024-03-08T09:42:03;18.23;;;14.30;;
291;SDS011;23311;48.776;9.162;2024-03-08T09:44:32;18.43;;;14.37;;
291;SDS011;23311;48.776;9.162;2024-03-08T09:47:02;21.60;;;15.70;;
291;SDS011;23311;48.776;9.162;2024-03-08T09:49:33;20.90;;;15.20;;
291;SDS011;23311;48.776;9.162;2024-03-08T09:52:04;19.27;;;15.20;;
291;SDS011;23311;48.776;9.162;2024-03-08T09:54:33;19.80;;;14.33;;
291;SDS011;23311;48.776;9.162;2024-03-08T09:57:03;21.17;;;15.97;;
291;SDS011;23311;48.776;9.162;2024-03-08T09:59:32;19.53;;;15.00;;
291;SDS011;23311;48.776;9.162;2024-03-08T10:02:14;19.83;;;15.47;;
291;SDS011;23311;48.776;9.162;2024-03-08T10:04:43;22.07;;;16.40;;
291;SDS011;23311;48.776;9.162;2024-03-08T10:07:14;18.43;;;14.87;;
291;SDS011;23311;48.776;9.162;2024-03-08T10:09:43;18.50;;;14.50;;
291;SDS011;23311;48.776;9.162;2024-03-08T10:12:17;17.67;;;13.80;;
291;SDS011;23311;48.776;9.162;2024-03-08T10:14:46;16.63;;;13.93;;
291;SDS011;23311;48.776;9.162;2024-03-08T10:17:14;20.63;;;15.10;;
291;SDS011;23311;48.776;9.162;2024-03-08T10:19:49;18.13;;;14.23;;
291;SDS011;23311;48.776;9.162;2024-03-08T10:22:18;19.40;;;13.20;;
291;SDS011;23311;48.776;9.162;2024-03-08T10:24:48;18.33;;;13.87;;
291;SDS011;23311;48.776;9.162;2024-03-08T10:27:16;17.93;;;14.13;;
291;SDS011;23311;48.776;9.162;2024-03-08T10:29:46;18.33;;;14.23;;
291;SDS011;23311;48.776;9.162;2024-03-08T10:32:15;18.10;;;11.87;;
291;SDS011;23311;48.776;9.162;2024-03-08T10:34:43;17.57;;;13.17;;
291;SDS011;23311;48.776;9.162;2024-03-08T10:37:12;17.00;;;12.57;;
291;SDS011;23311;48.776;9.162;2024-03-08T10:39:46;15.13;;;11.83;;
291;SDS011;23311;48.776;9.162;2024-03-08T10:42:26;16.03;;;12.20;;
291;SDS011;23311;48.776;9.162;2024-03-08T10:45:02;17.93;;;13.20;;
291;SDS011;23311;48.776;9.162;2024-03-08T10:47:40;18.90;;;12.87;;
291;SDS011;23311;48.776;9.162;2024-03-08T10:50:16;18.53;;;14.40;;
291;SDS011;23311;48.776;9.162;2024-03-08T10:52:48;15.47;;;13.03;;
291;SDS011;23311;48.776;9.162;2024-03-08T10:55:19;18.33;;;13.80;;
291;SDS011;23311;48.776;9.162;2024-03-08T10:57:47;18.57;;;12.77;;
291;SDS011;23311;48.776;9.162;2024-03-08T11:00:16;14.63;;;12.10;;
291;SDS011;23311;48.776;9.162;2024-03-08T11:02:53;17.00;;;13.43;;
291;SDS011;23311;48.776;9.162;2024-03-08T11:05:31;13.53;;;10.57;;
291;SDS011;23311;48.776;9.162;2024-03-08T11:08:16;17.73;;;13.47;;
291;SDS011;23311;48.776;9.162;2024-03-08T11:10:48;16.20;;;12.10;;
291;SDS011;23311;48.776;9.162;2024-03-08T11:13:34;19.00;;;13.10;;
291;SDS011;23311;48.776;9.162;2024-03-08T11:16:06;15.70;;;11.37;;
291;SDS011;23311;48.776;9.162;2024-03-08T11:18:36;15.73;;;12.33;;
291;SDS011;23311;48.776;9.162;2024-03-08T11:21:06;18.53;;;13.57;;
291;SDS011;23311;48.776;9.162;2024-03-08T11:23:39;15.60;;;13.10;;
291;SDS011;23311;48.776;9.162;2024-03-08T11:26:18;17.43;;;12.07;;
291;SDS011;23311;48.776;9.162;2024-03-08T11:28:47;16.07;;;12.17;;
291;SDS011;23311;48.776;9.162;2024-03-08T11:31:21;14.97;;;11.80;;
291;SDS011;23311;48.776;9.162;2024-03-08T11:33:50;19.07;;;12.87;;
291;SDS011;23311;48.776;9.162;2024-03-08T11:36:20;18.73;;;14.00;;
291;SDS011;23311;48.776;9.162;2024-03-08T11:38:51;18.57;;;12.40;;
291;SDS011;23311;48.776;9.162;2024-03-08T11:41:23;15.10;;;13.37;;
291;SDS011;23311;48.776;9.162;2024-03-08T11:44:01;20.80;;;13.80;;
291;SDS011;23311;48.776;9.162;2024-03-08T11:46:33;17.47;;;13.20;;
291;SDS011;23311;48.776;9.162;2024-03-08T11:49:02;15.27;;;12.47;;
291;SDS011;23311;48.776;9.162;2024-03-08T11:51:32;17.13;;;13.03;;
291;SDS011;23311;48.776;9.162;2024-03-08T11:54:00;16.60;;;12.00;;
291;SDS011;23311;48.776;9.162;2024-03-08T11:56:31;18.40;;;14.70;;
291;SDS011;23311;48.776;9.162;2024-03-08T11:59:00;17.70;;;12.23;;
291;SDS011;23311;48.776;9.162;2024-03-08T12:01:28;17.83;;;13.10;;
291;SDS011;23311;48.776;9.162;2024-03-08T12:03:59;14.80;;;12.10;;
291;SDS011;23311;48.776;9.162;2024-03-08T12:06:27;18.97;;;14.00;;
291;SDS011;23311;48.776;9.162;2024-03-08T12:09:08;16.80;;;12.13;;
291;SDS011;23311;48.776;9.162;2024-03-08T12:11:38;17.90;;;13.97;;
291;SDS011;23311;48.776;9.162;2024-03-08T12:14:07;15.87;;;13.20;;
291;SDS011;23311;48.776;9.162;2024-03-08T12:16:36;18.30;;;12.80;;
291;SDS011;23311;48.776;9.162;2024-03-08T12:19:04;17.47;;;12.00;;
291;SDS011;23311;48.776;9.162;2024-03-08T12:21:33;17.73;;;11.77;;
291;SDS011;23311;48.776;9.162;2024-03-08T12:24:03;16.30;;;12.97;;
291;SDS011;23311;48.776;9.162;2024-03-08T12:26:35;17.00;;;12.47;;
291;SDS011;23311;48.776;9.162;2024-03-08T12:29:16;16.70;;;13.30;;
291;SDS011;23311;48.776;9.162;2024-03-08T12:31:47;20.50;;;14.10;;
291;SDS011;23311;48.776;9.162;2024-03-08T12:34:16;19.00;;;14.87;;
291;SDS011;23311;48.776;9.162;2024-03-08T12:36:45;17.70;;;12.47;;
291;SDS011;23311;48.776;9.162;2024-03-08T12:39:18;19.40;;;13.87;;
291;SDS011;23311;48.776;9.162;2024-03-08T12:41:50;16.77;;;12.23;;
291;SDS011;23311;48.776;9.162;2024-03-08T12:44:19;18.70;;;13.63;;
291;SDS011;23311;48.776;9.162;2024-03-08T12:46:48;17.50;;;13.53;;
291;SDS011;23311;48.776;9.162;2024-03-08T12:49:20;18.00;;;14.27;;
291;SDS011;23311;48.776;9.162;2024-03-08T12:51:49;16.23;;;13.00;;
291;SDS011;23311;48.776;9.162;2024-03-08T12:54:19;17.47;;;13.20;;
291;SDS011;23311;48.776;9.162;2024-03-08T12:56:52;17.17;;;13.17;;
291;SDS011;23311;48.776;9.162;2024-03-08T12:59:21;18.07;;;12.93;;
291;SDS011;23311;48.776;9.162;2024-03-08T13:01:50;15.83;;;13.77;;
291;SDS011;23311;48.776;9.162;2024-03-08T13:04:20;20.30;;;14.87;;
291;SDS011;23311;48.776;9.162;2024-03-08T13:06:49;18.67;;;14.07;;
291;SDS011;23311;48.776;9.162;2024-03-08T13:09:21;17.87;;;14.27;;
291;SDS011;23311;48.776;9.162;2024-03-08T13:11:50;19.00;;;15.07;;
291;SDS011;23311;48.776;9.162;2024-03-08T13:14:22;16.63;;;13.53;;
291;SDS011;23311;48.776;9.162;2024-03-08T13:16:50;18.17;;;14.03;;
291;SDS011;23311;48.776;9.162;2024-03-08T13:19:18;20.20;;;14.13;;
291;SDS011;23311;48.776;9.162;2024-03-08T13:21:48;19.73;;;14.63;;
291;SDS011;23311;48.776;9.162;2024-03-08T13:24:17;18.40;;;14.20;;
291;SDS011;23311;48.776;9.162;2024-03-08T13:26:46;20.57;;;14.70;;
291;SDS011;23311;48.776;9.162;2024-03-08T13:29:16;18.30;;;14.23;;
291;SDS011;23311;48.776;9.162;2024-03-08T13:31:46;19.40;;;14.60;;
291;SDS011;23311;48.776;9.162;2024-03-08T13:34:19;19.50;;;13.80;;
291;SDS011;23311;48.776;9.162;2024-03-08T13:36:54;20.40;;;13.40;;
291;SDS011;23311;48.776;9.162;2024-03-08T13:39:27;20.67;;;15.13;;
291;SDS011;23311;48.776;9.162;2024-03-08T13:41:57;16.97;;;13.57;;
291;SDS011;23311;48.776;9.162;2024-03-08T13:44:25;18.97;;;14.50;;
291;SDS011;23311;48.776;9.162;2024-03-08T13:46:56;19.70;;;14.30;;
291;SDS011;23311;48.776;9.162;2024-03-08T13:49:25;21.90;;;14.57;;
291;SDS011;23311;48.776;9.162;2024-03-08T13:51:54;18.47;;;15.17;;
291;SDS011;23311;48.776;9.162;2024-03-08T13:54:24;18.03;;;14.10;;
291;SDS011;23311;48.776;9.162;2024-03-08T13:56:53;18.63;;;13.73;;
291;SDS011;23311;48.776;9.162;2024-03-08T13:59:22;18.13;;;14.43;;
291;SDS011;23311;48.776;9.162;2024-03-08T14:01:50;18.50;;;14.00;;
291;SDS011;23311;48.776;9.162;2024-03-08T14:04:20;19.93;;;13.13;;
291;SDS011;23311;48.776;9.162;2024-03-08T14:06:48;17.20;;;13.27;;
291;SDS011;23311;48.776;9.162;2024-03-08T14:09:17;20.90;;;15.60;;
291;SDS011;23311;48.776;9.162;2024-03-08T14:11:46;20.10;;;14.07;;
291;SDS011;23311;48.776;9.162;2024-03-08T14:14:14;18.00;;;13.97;;
291;SDS011;23311;48.776;9.162;2024-03-08T14:16:44;17.57;;;12.57;;
291;SDS011;23311;48.776;9.162;2024-03-08T14:19:12;18.80;;;13.80;;
291;SDS011;23311;48.776;9.162;2024-03-08T14:21:43;20.77;;;14.10;;
291;SDS011;23311;48.776;9.162;2024-03-08T14:24:11;19.53;;;14.27;;
291;SDS011;23311;48.776;9.162;2024-03-08T14:26:39;19.83;;;14.30;;
291;SDS011;23311;48.776;9.162;2024-03-08T14:29:08;26.23;;;14.47;;
291;SDS011;23311;48.776;9.162;2024-03-08T14:31:37;20.43;;;13.40;;
291;SDS011;23311;48.776;9.162;2024-03-08T14:34:06;19.83;;;14.67;;
291;SDS011;23311;48.776;9.162;2024-03-08T14:36:35;26.53;;;13.57;;
291;SDS011;23311;48.776;9.162;2024-03-08T14:39:05;21.43;;;13.70;;
291;SDS011;23311;48.776;9.162;2024-03-08T14:41:33;15.87;;;12.30;;
291;SDS011;23311;48.776;9.162;2024-03-08T14:44:02;19.10;;;13.70;;
291;SDS011;23311;48.776;9.162;2024-03-08T14:46:30;20.73;;;14.37;;
291;SDS011;23311;48.776;9.162;2024-03-08T14:48:58;17.47;;;13.23;;
291;SDS011;23311;48.776;9.162;2024-03-08T14:51:27;18.50;;;12.60;;
291;SDS011;23311;48.776;9.162;2024-03-08T14:53:55;17.37;;;12.93;;
291;SDS011;23311;48.776;9.162;2024-03-08T14:56:25;18.17;;;14.13;;
291;SDS011;23311;48.776;9.162;2024-03-08T14:58:54;20.43;;;13.97;;
291;SDS011;23311;48.776;9.162;2024-03-08T15:01:26;19.23;;;13.57;;
291;SDS011;23311;48.776;9.162;2024-03-08T15:03:56;18.97;;;13.40;;
291;SDS011;23311;48.776;9.162;2024-03-08T15:06:29;22.80;;;14.30;;
291;SDS011;23311;48.776;9.162;2024-03-08T15:08:58;20.93;;;14.60;;
291;SDS011;23311;48.776;9.162;2024-03-08T15:11:27;18.50;;;14.03;;
291;SDS011;23311;48.776;9.162;2024-03-08T15:13:55;18.67;;;14.30;;
291;SDS011;23311;48.776;9.162;2024-03-08T15:16:25;17.37;;;14.33;;
291;SDS011;23311;48.776;9.162;2024-03-08T15:18:53;20.83;;;14.30;;
291;SDS011;23311;48.776;9.162;2024-03-08T15:21:21;19.20;;;14.43;;
291;SDS011;23311;48.776;9.162;2024-03-08T15:23:52;19.87;;;12.73;;
291;SDS011;23311;48.776;9.162;2024-03-08T15:26:21;19.17;;;12.80;;
291;SDS011;23311;48.776;9.162;2024-03-08T15:28:50;18.93;;;13.27;;